sensor_id;sensor_type;location;lat;lon;timestamp;pressure;altitude;pressure_sealevel;temperature;humidity
61119;BME280;51448;51.660;5.824;2023-04-15T00:01:14;100706.88;;;7.65;71.22
61119;BME280;51448;51.660;5.824;2023-04-15T00:03:46;100696.50;;;7.59;71.69
61119;BME280;51448;51.660;5.824;2023-04-15T00:06:14;100699.16;;;7.56;71.97
61119;BME280;51448;51.660;5.824;2023-04-15T00:08:41;100707.09;;;7.53;72.69
61119;BME280;51448;51.660;5.824;2023-04-15T00:11:10;100702.78;;;7.49;72.73
61119;BME280;51448;51.660;5.824;2023-04-15T00:13:38;100703.72;;;7.47;73.01
61119;BME280;51448;51.660;5.824;2023-04-15T00:16:06;100704.63;;;7.44;72.91
61119;BME280;51448;51.660;5.824;2023-04-15T00:18:35;100708.13;;;7.43;72.64
61119;BME280;51448;51.660;5.824;2023-04-15T00:21:04;100696.84;;;7.41;72.77
61119;BME280;51448;51.660;5.824;2023-04-15T00:23:32;100708.13;;;7.43;72.99
61119;BME280;51448;51.660;5.824;2023-04-15T00:25:59;100709.00;;;7.43;72.98
61119;BME280;51448;51.660;5.824;2023-04-15T00:28:27;100704.63;;;7.44;73.08
61119;BME280;51448;51.660;5.824;2023-04-15T00:30:54;100703.75;;;7.43;72.76
61119;BME280;51448;51.660;5.824;2023-04-15T00:33:22;100702.91;;;7.41;73.05
61119;BME280;51448;51.660;5.824;2023-04-15T00:35:50;100699.50;;;7.38;73.57
61119;BME280;51448;51.660;5.824;2023-04-15T00:38:18;100700.41;;;7.35;73.40
61119;BME280;51448;51.660;5.824;2023-04-15T00:40:45;100703.94;;;7.33;73.60
61119;BME280;51448;51.660;5.824;2023-04-15T00:43:13;100703.13;;;7.31;73.69
61119;BME280;51448;51.660;5.824;2023-04-15T00:45:41;100702.28;;;7.29;73.92
61119;BME280;51448;51.660;5.824;2023-04-15T00:48:10;100699.69;;;7.27;73.98
61119;BME280;51448;51.660;5.824;2023-04-15T00:50:38;100701.44;;;7.25;74.03
61119;BME280;51448;51.660;5.824;2023-04-15T00:53:06;100708.47;;;7.23;74.01
61119;BME280;51448;51.660;5.824;2023-04-15T00:55:33;100707.59;;;7.22;74.49
61119;BME280;51448;51.660;5.824;2023-04-15T00:58:02;100699.78;;;7.19;74.48
61119;BME280;51448;51.660;5.824;2023-04-15T01:00:30;100701.56;;;7.19;74.40
61119;BME280;51448;51.660;5.824;2023-04-15T01:02:58;100701.56;;;7.17;74.29
61119;BME280;51448;51.660;5.824;2023-04-15T01:05:26;100704.22;;;7.16;74.33
61119;BME280;51448;51.660;5.824;2023-04-15T01:07:56;100703.41;;;7.12;73.93
61119;BME280;51448;51.660;5.824;2023-04-15T01:10:24;100704.34;;;7.10;74.08
61119;BME280;51448;51.660;5.824;2023-04-15T01:12:51;100706.13;;;7.06;74.26
61119;BME280;51448;51.660;5.824;2023-04-15T01:15:19;100708.78;;;7.03;74.11
61119;BME280;51448;51.660;5.824;2023-04-15T01:17:47;100712.31;;;6.99;74.26
61119;BME280;51448;51.660;5.824;2023-04-15T01:20:15;100716.78;;;6.94;74.10
61119;BME280;51448;51.660;5.824;2023-04-15T01:22:43;100711.63;;;6.89;74.36
61119;BME280;51448;51.660;5.824;2023-04-15T01:25:16;100710.78;;;6.85;74.29
61119;BME280;51448;51.660;5.824;2023-04-15T01:27:45;100710.88;;;6.79;74.44
61119;BME280;51448;51.660;5.824;2023-04-15T01:30:13;100712.66;;;6.76;75.03
61119;BME280;51448;51.660;5.824;2023-04-15T01:32:41;100712.72;;;6.73;75.08
61119;BME280;51448;51.660;5.824;2023-04-15T01:35:09;100711.00;;;6.70;75.21
61119;BME280;51448;51.660;5.824;2023-04-15T01:37:37;100709.31;;;6.66;74.94
61119;BME280;51448;51.660;5.824;2023-04-15T01:40:05;100712.84;;;6.63;75.56
61119;BME280;51448;51.660;5.824;2023-04-15T01:42:36;100713.75;;;6.61;75.64
61119;BME280;51448;51.660;5.824;2023-04-15T01:45:04;100720.75;;;6.57;75.70
61119;BME280;51448;51.660;5.824;2023-04-15T01:47:33;100719.06;;;6.55;76.74
61119;BME280;51448;51.660;5.824;2023-04-15T01:50:01;100710.41;;;6.50;77.37
61119;BME280;51448;51.660;5.824;2023-04-15T01:52:29;100712.16;;;6.49;78.26
61119;BME280;51448;51.660;5.824;2023-04-15T01:54:56;100712.25;;;6.43;79.07
61119;BME280;51448;51.660;5.824;2023-04-15T01:57:24;100715.75;;;6.40;79.85
61119;BME280;51448;51.660;5.824;2023-04-15T01:59:54;100716.69;;;6.38;80.77
61119;BME280;51448;51.660;5.824;2023-04-15T02:02:22;100711.47;;;6.36;81.25
61119;BME280;51448;51.660;5.824;2023-04-15T02:04:50;100712.31;;;6.35;81.44
61119;BME280;51448;51.660;5.824;2023-04-15T02:07:17;100710.63;;;6.34;82.41
61119;BME280;51448;51.660;5.824;2023-04-15T02:09:45;100708.94;;;6.30;82.01
61119;BME280;51448;51.660;5.824;2023-04-15T02:12:13;100708.06;;;6.30;82.32
61119;BME280;51448;51.660;5.824;2023-04-15T02:14:41;100715.91;;;6.28;82.36
61119;BME280;51448;51.660;5.824;2023-04-15T02:17:09;100709.84;;;6.26;82.26
61119;BME280;51448;51.660;5.824;2023-04-15T02:19:36;100710.69;;;6.27;82.24
61119;BME280;51448;51.660;5.824;2023-04-15T02:22:05;100715.06;;;6.26;81.78
61119;BME280;51448;51.660;5.824;2023-04-15T02:24:35;100715.09;;;6.24;81.63
61119;BME280;51448;51.660;5.824;2023-04-15T02:27:03;100715.06;;;6.26;81.88
61119;BME280;51448;51.660;5.824;2023-04-15T02:29:30;100716.78;;;6.27;81.52
61119;BME280;51448;51.660;5.824;2023-04-15T02:32:00;100722.91;;;6.28;81.21
61119;BME280;51448;51.660;5.824;2023-04-15T02:34:28;100717.66;;;6.28;81.67
61119;BME280;51448;51.660;5.824;2023-04-15T02:36:57;100722.91;;;6.28;81.42
61119;BME280;51448;51.660;5.824;2023-04-15T02:39:25;100729.84;;;6.27;81.64
61119;BME280;51448;51.660;5.824;2023-04-15T02:41:53;100734.19;;;6.28;82.54
61119;BME280;51448;51.660;5.824;2023-04-15T02:44:21;100729.84;;;6.27;82.65
61119;BME280;51448;51.660;5.824;2023-04-15T02:46:55;100739.44;;;6.25;82.97
61119;BME280;51448;51.660;5.824;2023-04-15T02:49:23;100734.28;;;6.22;84.08
61119;BME280;51448;51.660;5.824;2023-04-15T02:51:51;100735.19;;;6.18;83.88
61119;BME280;51448;51.660;5.824;2023-04-15T02:54:20;100729.97;;;6.16;84.54
61119;BME280;51448;51.660;5.824;2023-04-15T02:56:52;100740.44;;;6.16;84.80
61119;BME280;51448;51.660;5.824;2023-04-15T02:59:22;100743.94;;;6.15;85.19
61119;BME280;51448;51.660;5.824;2023-04-15T03:01:50;100750.00;;;6.16;85.67
61119;BME280;51448;51.660;5.824;2023-04-15T03:04:18;100748.25;;;6.15;85.78
61119;BME280;51448;51.660;5.824;2023-04-15T03:06:46;100752.63;;;6.13;86.62
61119;BME280;51448;51.660;5.824;2023-04-15T03:09:14;100756.16;;;6.12;87.11
61119;BME280;51448;51.660;5.824;2023-04-15T03:11:42;100757.06;;;6.08;87.48
61119;BME280;51448;51.660;5.824;2023-04-15T03:14:10;100752.75;;;6.03;86.68
61119;BME280;51448;51.660;5.824;2023-04-15T03:16:42;100751.06;;;6.01;87.64
61119;BME280;51448;51.660;5.824;2023-04-15T03:19:09;100754.53;;;5.98;87.94
61119;BME280;51448;51.660;5.824;2023-04-15T03:21:39;100751.97;;;5.95;88.28
61119;BME280;51448;51.660;5.824;2023-04-15T03:24:08;100753.69;;;5.93;88.82
61119;BME280;51448;51.660;5.824;2023-04-15T03:26:36;100758.09;;;5.90;88.70
61119;BME280;51448;51.660;5.824;2023-04-15T03:29:10;100758.97;;;5.87;88.48
61119;BME280;51448;51.660;5.824;2023-04-15T03:31:39;100759.00;;;5.84;88.71
61119;BME280;51448;51.660;5.824;2023-04-15T03:34:07;100770.34;;;5.83;88.81
61119;BME280;51448;51.660;5.824;2023-04-15T03:36:35;100762.50;;;5.80;89.11
61119;BME280;51448;51.660;5.824;2023-04-15T03:39:03;100769.50;;;5.78;89.05
61119;BME280;51448;51.660;5.824;2023-04-15T03:41:30;100768.66;;;5.76;89.61
61119;BME280;51448;51.660;5.824;2023-04-15T03:43:59;100776.47;;;5.76;90.45
61119;BME280;51448;51.660;5.824;2023-04-15T03:46:26;100775.63;;;5.74;90.16
61119;BME280;51448;51.660;5.824;2023-04-15T03:48:54;100772.16;;;5.73;90.45
61119;BME280;51448;51.660;5.824;2023-04-15T03:51:22;100774.78;;;5.72;91.30
61119;BME280;51448;51.660;5.824;2023-04-15T03:53:49;100776.56;;;5.68;90.77
61119;BME280;51448;51.660;5.824;2023-04-15T03:56:17;100777.44;;;5.67;90.59
61119;BME280;51448;51.660;5.824;2023-04-15T03:58:44;100780.09;;;5.64;90.98
61119;BME280;51448;51.660;5.824;2023-04-15T04:01:12;100782.72;;;5.59;90.53
61119;BME280;51448;51.660;5.824;2023-04-15T04:03:40;100783.59;;;5.58;90.16
61119;BME280;51448;51.660;5.824;2023-04-15T04:06:08;100794.94;;;5.53;90.76
61119;BME280;51448;51.660;5.824;2023-04-15T04:08:38;100799.34;;;5.48;90.71
61119;BME280;51448;51.660;5.824;2023-04-15T04:11:06;100804.56;;;5.44;91.29
61119;BME280;51448;51.660;5.824;2023-04-15T04:13:34;100805.47;;;5.40;90.86
61119;BME280;51448;51.660;5.824;2023-04-15T04:16:01;100804.66;;;5.34;90.59
61119;BME280;51448;51.660;5.824;2023-04-15T04:18:31;100808.16;;;5.28;90.92
61119;BME280;51448;51.660;5.824;2023-04-15T04:20:59;100809.91;;;5.24;90.99
61119;BME280;51448;51.660;5.824;2023-04-15T04:23:27;100809.91;;;5.24;90.70
61119;BME280;51448;51.660;5.824;2023-04-15T04:25:55;100821.25;;;5.23;91.22
61119;BME280;51448;51.660;5.824;2023-04-15T04:28:23;100814.31;;;5.19;91.19
61119;BME280;51448;51.660;5.824;2023-04-15T04:30:50;100830.84;;;5.15;91.16
61119;BME280;51448;51.660;5.824;2023-04-15T04:33:18;100829.13;;;5.11;90.70
61119;BME280;51448;51.660;5.824;2023-04-15T04:35:48;100828.28;;;5.11;91.12
61119;BME280;51448;51.660;5.824;2023-04-15T04:38:16;100832.59;;;5.10;90.55
61119;BME280;51448;51.660;5.824;2023-04-15T04:40:43;100829.13;;;5.11;90.70
61119;BME280;51448;51.660;5.824;2023-04-15T04:43:11;100844.75;;;5.14;90.61
61119;BME280;51448;51.660;5.824;2023-04-15T04:45:39;100850.84;;;5.13;90.86
61119;BME280;51448;51.660;5.824;2023-04-15T04:48:07;100847.38;;;5.13;90.88
61119;BME280;51448;51.660;5.824;2023-04-15T04:50:36;100850.84;;;5.13;90.30
61119;BME280;51448;51.660;5.824;2023-04-15T04:53:04;100849.97;;;5.14;90.51
61119;BME280;51448;51.660;5.824;2023-04-15T04:55:32;100858.63;;;5.16;90.41
61119;BME280;51448;51.660;5.824;2023-04-15T04:58:00;100856.03;;;5.18;90.22
61119;BME280;51448;51.660;5.824;2023-04-15T05:00:28;100863.84;;;5.19;90.46
61119;BME280;51448;51.660;5.824;2023-04-15T05:02:56;100874.28;;;5.19;89.84
61119;BME280;51448;51.660;5.824;2023-04-15T05:05:24;100876.00;;;5.20;90.21
61119;BME280;51448;51.660;5.824;2023-04-15T05:07:51;100871.69;;;5.21;89.97
61119;BME280;51448;51.660;5.824;2023-04-15T05:10:19;100872.53;;;5.21;90.11
61119;BME280;51448;51.660;5.824;2023-04-15T05:12:47;100880.31;;;5.24;90.70
61119;BME280;51448;51.660;5.824;2023-04-15T05:15:14;100889.03;;;5.25;89.93
61119;BME280;51448;51.660;5.824;2023-04-15T05:17:42;100887.28;;;5.26;89.96
61119;BME280;51448;51.660;5.824;2023-04-15T05:20:11;100887.28;;;5.27;89.96
61119;BME280;51448;51.660;5.824;2023-04-15T05:22:39;100894.22;;;5.30;90.50
61119;BME280;51448;51.660;5.824;2023-04-15T05:25:07;100895.09;;;5.32;90.34
61119;BME280;51448;51.660;5.824;2023-04-15T05:27:35;100897.69;;;5.33;90.51
61119;BME280;51448;51.660;5.824;2023-04-15T05:30:03;100904.63;;;5.37;91.38
61119;BME280;51448;51.660;5.824;2023-04-15T05:32:31;100902.88;;;5.39;91.42
61119;BME280;51448;51.660;5.824;2023-04-15T05:34:59;100909.81;;;5.42;91.66
61119;BME280;51448;51.660;5.824;2023-04-15T05:37:26;100914.13;;;5.46;91.54
61119;BME280;51448;51.660;5.824;2023-04-15T05:39:54;100921.06;;;5.50;91.83
61119;BME280;51448;51.660;5.824;2023-04-15T05:42:23;100919.31;;;5.54;91.51
61119;BME280;51448;51.660;5.824;2023-04-15T05:44:53;100923.63;;;5.58;91.44
61119;BME280;51448;51.660;5.824;2023-04-15T05:47:21;100930.53;;;5.65;92.01
61119;BME280;51448;51.660;5.824;2023-04-15T05:49:49;100935.72;;;5.71;92.13
61119;BME280;51448;51.660;5.824;2023-04-15T05:52:17;100933.91;;;5.78;92.30
61119;BME280;51448;51.660;5.824;2023-04-15T05:54:45;100942.59;;;5.84;92.38
61119;BME280;51448;51.660;5.824;2023-04-15T05:57:12;100940.81;;;5.91;92.30
61119;BME280;51448;51.660;5.824;2023-04-15T05:59:41;100939.03;;;5.99;92.28
61119;BME280;51448;51.660;5.824;2023-04-15T06:02:08;100945.06;;;6.06;92.36
61119;BME280;51448;51.660;5.824;2023-04-15T06:04:36;100952.84;;;6.15;92.42
61119;BME280;51448;51.660;5.824;2023-04-15T06:07:04;100955.38;;;6.23;93.05
61119;BME280;51448;51.660;5.824;2023-04-15T06:09:32;100959.69;;;6.32;92.65
61119;BME280;51448;51.660;5.824;2023-04-15T06:12:00;100963.09;;;6.38;92.88
61119;BME280;51448;51.660;5.824;2023-04-15T06:14:28;100966.50;;;6.47;92.85
61119;BME280;51448;51.660;5.824;2023-04-15T06:16:56;100975.16;;;6.53;92.92
61119;BME280;51448;51.660;5.824;2023-04-15T06:19:24;100980.31;;;6.59;93.12
61119;BME280;51448;51.660;5.824;2023-04-15T06:21:52;100992.47;;;6.67;93.05
61119;BME280;51448;51.660;5.824;2023-04-15T06:24:19;100988.94;;;6.71;93.29
61119;BME280;51448;51.660;5.824;2023-04-15T06:26:47;100990.66;;;6.75;93.18
61119;BME280;51448;51.660;5.824;2023-04-15T06:29:15;101001.91;;;6.81;92.97
61119;BME280;51448;51.660;5.824;2023-04-15T06:31:42;101003.56;;;6.89;92.53
61119;BME280;51448;51.660;5.824;2023-04-15T06:34:10;101011.34;;;6.95;92.86
61119;BME280;51448;51.660;5.824;2023-04-15T06:36:38;101006.03;;;7.02;93.13
61119;BME280;51448;51.660;5.824;2023-04-15T06:39:05;101011.22;;;7.09;92.95
61119;BME280;51448;51.660;5.824;2023-04-15T06:41:33;101016.38;;;7.16;92.80
61119;BME280;51448;51.660;5.824;2023-04-15T06:44:01;101016.28;;;7.24;93.08
61119;BME280;51448;51.660;5.824;2023-04-15T06:46:29;101027.53;;;7.32;93.04
61119;BME280;51448;51.660;5.824;2023-04-15T06:48:57;101027.38;;;7.43;93.19
61119;BME280;51448;51.660;5.824;2023-04-15T06:51:24;101033.31;;;7.57;92.98
61119;BME280;51448;51.660;5.824;2023-04-15T06:53:53;101031.41;;;7.70;92.61
61119;BME280;51448;51.660;5.824;2023-04-15T06:56:20;101039.94;;;7.84;93.15
61119;BME280;51448;51.660;5.824;2023-04-15T06:58:48;101040.63;;;7.97;92.49
61119;BME280;51448;51.660;5.824;2023-04-15T07:01:18;101041.34;;;8.10;92.59
61119;BME280;51448;51.660;5.824;2023-04-15T07:03:46;101050.72;;;8.25;92.01
61119;BME280;51448;51.660;5.824;2023-04-15T07:06:14;101049.63;;;8.41;92.04
61119;BME280;51448;51.660;5.824;2023-04-15T07:08:41;101058.16;;;8.56;91.92
61119;BME280;51448;51.660;5.824;2023-04-15T07:11:10;101061.41;;;8.72;91.25
61119;BME280;51448;51.660;5.824;2023-04-15T07:13:37;101060.19;;;8.90;90.73
61119;BME280;51448;51.660;5.824;2023-04-15T07:16:05;101066.13;;;9.01;90.25
61119;BME280;51448;51.660;5.824;2023-04-15T07:18:33;101073.03;;;9.06;89.74
61119;BME280;51448;51.660;5.824;2023-04-15T07:21:03;101074.63;;;9.14;90.24
61119;BME280;51448;51.660;5.824;2023-04-15T07:23:31;101080.63;;;9.20;89.62
61119;BME280;51448;51.660;5.824;2023-04-15T07:25:58;101082.31;;;9.24;90.12
61119;BME280;51448;51.660;5.824;2023-04-15T07:28:27;101090.13;;;9.27;89.82
61119;BME280;51448;51.660;5.824;2023-04-15T07:30:54;101091.06;;;9.25;89.48
61119;BME280;51448;51.660;5.824;2023-04-15T07:33:23;101096.34;;;9.22;89.59
61119;BME280;51448;51.660;5.824;2023-04-15T07:35:51;101096.34;;;9.22;89.45
61119;BME280;51448;51.660;5.824;2023-04-15T07:38:18;101099.06;;;9.17;89.36
61119;BME280;51448;51.660;5.824;2023-04-15T07:40:46;101105.19;;;9.16;89.47
61119;BME280;51448;51.660;5.824;2023-04-15T07:43:14;101107.88;;;9.15;89.71
61119;BME280;51448;51.660;5.824;2023-04-15T07:45:42;101110.41;;;9.19;89.95
61119;BME280;51448;51.660;5.824;2023-04-15T07:48:10;101117.34;;;9.23;89.71
61119;BME280;51448;51.660;5.824;2023-04-15T07:50:38;101113.81;;;9.24;89.17
61119;BME280;51448;51.660;5.824;2023-04-15T07:53:05;101119.88;;;9.26;89.19
61119;BME280;51448;51.660;5.824;2023-04-15T07:55:33;101125.94;;;9.32;88.77
61119;BME280;51448;51.660;5.824;2023-04-15T07:58:01;101120.63;;;9.35;88.99
61119;BME280;51448;51.660;5.824;2023-04-15T08:00:28;101130.16;;;9.40;88.61
61119;BME280;51448;51.660;5.824;2023-04-15T08:02:56;101132.69;;;9.45;88.36
61119;BME280;51448;51.660;5.824;2023-04-15T08:05:25;101132.69;;;9.45;88.35
61119;BME280;51448;51.660;5.824;2023-04-15T08:07:53;101136.19;;;9.45;88.12
61119;BME280;51448;51.660;5.824;2023-04-15T08:10:21;101130.78;;;9.53;88.91
61119;BME280;51448;51.660;5.824;2023-04-15T08:12:59;101147.13;;;9.67;88.82
61119;BME280;51448;51.660;5.824;2023-04-15T08:15:27;101137.28;;;9.79;88.36
61119;BME280;51448;51.660;5.824;2023-04-15T08:17:54;101147.53;;;9.93;87.39
61119;BME280;51448;51.660;5.824;2023-04-15T08:20:22;101153.41;;;10.04;86.45
61119;BME280;51448;51.660;5.824;2023-04-15T08:22:50;101154.84;;;10.19;85.77
61119;BME280;51448;51.660;5.824;2023-04-15T08:25:18;101157.25;;;10.31;86.00
61119;BME280;51448;51.660;5.824;2023-04-15T08:27:47;101156.06;;;10.46;84.69
61119;BME280;51448;51.660;5.824;2023-04-15T08:30:14;101154.91;;;10.58;83.88
61119;BME280;51448;51.660;5.824;2023-04-15T08:32:44;101156.50;;;10.65;83.33
61119;BME280;51448;51.660;5.824;2023-04-15T08:35:13;101162.38;;;10.76;83.12
61119;BME280;51448;51.660;5.824;2023-04-15T08:37:41;101158.53;;;10.91;82.59
61119;BME280;51448;51.660;5.824;2023-04-15T08:40:09;101161.78;;;11.01;82.50
61119;BME280;51448;51.660;5.824;2023-04-15T08:42:43;101173.88;;;11.10;82.26
61119;BME280;51448;51.660;5.824;2023-04-15T08:45:18;101173.78;;;11.13;81.82
61119;BME280;51448;51.660;5.824;2023-04-15T08:47:48;101175.47;;;11.15;79.98
61119;BME280;51448;51.660;5.824;2023-04-15T08:50:21;101179.84;;;11.16;80.29
61119;BME280;51448;51.660;5.824;2023-04-15T08:52:58;101184.94;;;11.22;77.47
61119;BME280;51448;51.660;5.824;2023-04-15T08:55:29;101184.94;;;11.22;78.33
61119;BME280;51448;51.660;5.824;2023-04-15T08:58:03;101191.94;;;11.23;77.90
61119;BME280;51448;51.660;5.824;2023-04-15T09:00:31;101198.19;;;11.19;78.14
61119;BME280;51448;51.660;5.824;2023-04-15T09:03:00;101193.81;;;11.18;77.44
61119;BME280;51448;51.660;5.824;2023-04-15T09:05:31;101200.78;;;11.21;77.38
61119;BME280;51448;51.660;5.824;2023-04-15T09:08:03;101193.69;;;11.24;77.65
61119;BME280;51448;51.660;5.824;2023-04-15T09:10:32;101204.91;;;11.31;77.17
61119;BME280;51448;51.660;5.824;2023-04-15T09:13:00;101209.16;;;11.37;77.53
61119;BME280;51448;51.660;5.824;2023-04-15T09:15:29;101214.28;;;11.43;76.28
61119;BME280;51448;51.660;5.824;2023-04-15T09:17:59;101213.41;;;11.42;75.72
61119;BME280;51448;51.660;5.824;2023-04-15T09:20:27;101216.88;;;11.44;76.06
61119;BME280;51448;51.660;5.824;2023-04-15T09:23:10;101215.75;;;11.55;76.33
61119;BME280;51448;51.660;5.824;2023-04-15T09:25:41;101218.13;;;11.64;76.00
61119;BME280;51448;51.660;5.824;2023-04-15T09:28:09;101226.66;;;11.74;75.20
61119;BME280;51448;51.660;5.824;2023-04-15T09:30:37;101223.88;;;11.78;74.46
61119;BME280;51448;51.660;5.824;2023-04-15T09:33:05;101233.41;;;11.84;73.95
61119;BME280;51448;51.660;5.824;2023-04-15T09:35:37;101238.66;;;11.85;74.45
61119;BME280;51448;51.660;5.824;2023-04-15T09:38:06;101232.19;;;11.97;73.74
61119;BME280;51448;51.660;5.824;2023-04-15T09:40:39;101237.28;;;12.03;73.18
61119;BME280;51448;51.660;5.824;2023-04-15T09:43:09;101242.38;;;12.10;72.16
61119;BME280;51448;51.660;5.824;2023-04-15T09:45:49;101247.38;;;12.20;72.68
61119;BME280;51448;51.660;5.824;2023-04-15T09:48:24;101239.06;;;12.34;72.16
61119;BME280;51448;51.660;5.824;2023-04-15T09:50:58;101249.38;;;12.42;72.19
61119;BME280;51448;51.660;5.824;2023-04-15T09:53:27;101241.22;;;12.51;71.07
61119;BME280;51448;51.660;5.824;2023-04-15T09:55:59;101247.22;;;12.56;71.48
61119;BME280;51448;51.660;5.824;2023-04-15T09:58:33;101253.03;;;12.67;71.58
61119;BME280;51448;51.660;5.824;2023-04-15T10:01:03;101253.56;;;12.79;71.71
61119;BME280;51448;51.660;5.824;2023-04-15T10:03:34;101255.00;;;12.89;70.11
61119;BME280;51448;51.660;5.824;2023-04-15T10:06:04;101251.41;;;12.92;70.02
61119;BME280;51448;51.660;5.824;2023-04-15T10:08:33;101246.91;;;12.95;69.79
61119;BME280;51448;51.660;5.824;2023-04-15T10:11:01;101256.56;;;12.96;68.26
61119;BME280;51448;51.660;5.824;2023-04-15T10:13:31;101264.59;;;12.92;67.40
61119;BME280;51448;51.660;5.824;2023-04-15T10:16:10;101268.31;;;12.86;67.64
61119;BME280;51448;51.660;5.824;2023-04-15T10:18:44;101261.25;;;12.86;67.20
61119;BME280;51448;51.660;5.824;2023-04-15T10:21:13;101263.75;;;12.91;69.40
61119;BME280;51448;51.660;5.824;2023-04-15T10:23:45;101274.72;;;13.07;68.74
61119;BME280;51448;51.660;5.824;2023-04-15T10:26:14;101270.88;;;13.17;69.67
61119;BME280;51448;51.660;5.824;2023-04-15T10:28:44;101272.47;;;13.23;67.79
61119;BME280;51448;51.660;5.824;2023-04-15T10:31:15;101267.22;;;13.21;67.18
61119;BME280;51448;51.660;5.824;2023-04-15T10:33:44;101270.66;;;13.23;66.86
61119;BME280;51448;51.660;5.824;2023-04-15T10:36:14;101270.63;;;13.25;67.00
61119;BME280;51448;51.660;5.824;2023-04-15T10:38:45;101273.16;;;13.28;68.62
61119;BME280;51448;51.660;5.824;2023-04-15T10:41:14;101286.25;;;13.33;67.21
61119;BME280;51448;51.660;5.824;2023-04-15T10:43:52;101282.69;;;13.34;66.41
61119;BME280;51448;51.660;5.824;2023-04-15T10:46:22;101276.56;;;13.33;66.50
61119;BME280;51448;51.660;5.824;2023-04-15T10:49:13;101280.88;;;13.36;66.54
61119;BME280;51448;51.660;5.824;2023-04-15T10:51:50;101286.25;;;13.33;65.48
61119;BME280;51448;51.660;5.824;2023-04-15T10:59:31;101290.25;;;13.16;67.32
61119;BME280;51448;51.660;5.824;2023-04-15T11:02:06;101293.44;;;13.27;65.77
61119;BME280;51448;51.660;5.824;2023-04-15T11:07:54;101295.13;;;13.28;66.23
61119;BME280;51448;51.660;5.824;2023-04-15T11:13:02;101310.13;;;13.28;66.21
61119;BME280;51448;51.660;5.824;2023-04-15T11:15:32;101297.91;;;13.25;66.50
61119;BME280;51448;51.660;5.824;2023-04-15T11:20:57;101301.69;;;13.45;67.77
61119;BME280;51448;51.660;5.824;2023-04-15T11:23:35;101304.13;;;13.51;67.99
61119;BME280;51448;51.660;5.824;2023-04-15T11:26:07;101312.75;;;13.58;65.19
61119;BME280;51448;51.660;5.824;2023-04-15T11:28:39;101311.84;;;13.57;66.01
61119;BME280;51448;51.660;5.824;2023-04-15T11:31:18;101311.56;;;13.66;66.68
61119;BME280;51448;51.660;5.824;2023-04-15T11:33:58;101315.47;;;13.81;66.70
61119;BME280;51448;51.660;5.824;2023-04-15T11:36:29;101314.28;;;13.90;65.31
61119;BME280;51448;51.660;5.824;2023-04-15T11:39:00;101318.25;;;14.03;64.92
61119;BME280;51448;51.660;5.824;2023-04-15T11:41:28;101312.59;;;14.14;63.58
61119;BME280;51448;51.660;5.824;2023-04-15T11:43:56;101313.00;;;14.27;64.26
61119;BME280;51448;51.660;5.824;2023-04-15T11:46:30;101310.66;;;14.43;63.56
61119;BME280;51448;51.660;5.824;2023-04-15T11:48:58;101311.91;;;14.58;63.88
61119;BME280;51448;51.660;5.824;2023-04-15T11:51:31;101315.28;;;14.63;64.97
61119;BME280;51448;51.660;5.824;2023-04-15T11:54:00;101311.75;;;14.62;64.95
61119;BME280;51448;51.660;5.824;2023-04-15T11:56:29;101312.97;;;14.77;65.53
61119;BME280;51448;51.660;5.824;2023-04-15T11:58:57;101312.56;;;14.88;64.01
61119;BME280;51448;51.660;5.824;2023-04-15T12:01:33;101308.34;;;14.82;62.90
61119;BME280;51448;51.660;5.824;2023-04-15T12:04:10;101306.16;;;14.70;62.03
61119;BME280;51448;51.660;5.824;2023-04-15T12:06:44;101324.53;;;14.49;62.01
61119;BME280;51448;51.660;5.824;2023-04-15T12:09:13;101329.72;;;14.53;61.62
61119;BME280;51448;51.660;5.824;2023-04-15T12:11:51;101315.38;;;14.60;63.13
61119;BME280;51448;51.660;5.824;2023-04-15T12:14:26;101325.41;;;14.75;62.72
61119;BME280;51448;51.660;5.824;2023-04-15T12:16:57;101335.63;;;14.84;61.73
61119;BME280;51448;51.660;5.824;2023-04-15T12:19:45;101333.31;;;14.99;63.70
61119;BME280;51448;51.660;5.824;2023-04-15T12:22:15;101331.06;;;15.12;61.45
61119;BME280;51448;51.660;5.824;2023-04-15T12:24:43;101340.22;;;15.03;59.45
61119;BME280;51448;51.660;5.824;2023-04-15T12:27:15;101338.84;;;14.93;59.07
61119;BME280;51448;51.660;5.824;2023-04-15T12:29:43;101348.78;;;14.87;60.11
61119;BME280;51448;51.660;5.824;2023-04-15T12:32:13;101340.81;;;14.87;59.88
61119;BME280;51448;51.660;5.824;2023-04-15T12:34:47;101349.56;;;14.89;60.42
61119;BME280;51448;51.660;5.824;2023-04-15T12:37:17;101354.88;;;14.89;59.88
61119;BME280;51448;51.660;5.824;2023-04-15T12:39:48;101349.41;;;14.94;60.24
61119;BME280;51448;51.660;5.824;2023-04-15T12:42:16;101360.91;;;14.93;59.40
61119;BME280;51448;51.660;5.824;2023-04-15T12:44:45;101360.13;;;14.91;60.50
61119;BME280;51448;51.660;5.824;2023-04-15T12:47:13;101365.19;;;14.97;61.59
61119;BME280;51448;51.660;5.824;2023-04-15T12:49:41;101372.94;;;15.02;59.98
61119;BME280;51448;51.660;5.824;2023-04-15T12:52:09;101356.81;;;15.08;60.16
61119;BME280;51448;51.660;5.824;2023-04-15T12:54:38;101374.75;;;15.23;59.35
61119;BME280;51448;51.660;5.824;2023-04-15T12:57:06;101367.84;;;15.19;57.39
61119;BME280;51448;51.660;5.824;2023-04-15T12:59:34;101376.41;;;15.04;57.67
61119;BME280;51448;51.660;5.824;2023-04-15T13:02:02;101375.81;;;14.96;58.24
61119;BME280;51448;51.660;5.824;2023-04-15T13:04:30;101390.97;;;14.92;58.32
61119;BME280;51448;51.660;5.824;2023-04-15T13:06:58;101389.59;;;15.05;58.20
61119;BME280;51448;51.660;5.824;2023-04-15T13:09:26;101391.78;;;15.18;56.14
61119;BME280;51448;51.660;5.824;2023-04-15T13:11:53;101388.81;;;15.25;57.20
61119;BME280;51448;51.660;5.824;2023-04-15T13:14:22;101381.66;;;15.27;57.67
61119;BME280;51448;51.660;5.824;2023-04-15T13:16:49;101392.91;;;15.34;58.26
61119;BME280;51448;51.660;5.824;2023-04-15T13:19:17;101396.84;;;15.46;57.26
61119;BME280;51448;51.660;5.824;2023-04-15T13:21:45;101394.13;;;15.47;55.89